createdAt,value
2023-05-22T00:01:49.266Z,23.24
2023-05-22T00:04:34.475Z,23.17
2023-05-22T00:07:19.935Z,23.23
2023-05-22T00:10:05.140Z,23.12
2023-05-22T00:12:50.717Z,23.21
2023-05-22T00:15:36.200Z,23.15
2023-05-22T00:18:21.501Z,23.22
2023-05-22T00:21:06.896Z,23.19
2023-05-22T00:23:52.229Z,23.15
2023-05-22T00:26:37.694Z,23.07
2023-05-22T00:29:22.901Z,23.23
2023-05-22T00:32:08.482Z,23.22
2023-05-22T00:34:53.779Z,23.19
2023-05-22T00:37:39.253Z,23.26
2023-05-22T00:40:24.516Z,23.19
2023-05-22T00:43:09.859Z,23.08
2023-05-22T00:45:55.209Z,23.08
2023-05-22T00:48:40.470Z,23.18
2023-05-22T00:51:25.922Z,23.06
2023-05-22T00:54:11.211Z,23.04
2023-05-22T00:56:56.359Z,23.07
2023-05-22T00:59:42.075Z,23.09
2023-05-22T01:02:27.272Z,23.17
2023-05-22T01:05:12.752Z,23.01
2023-05-22T01:07:58.064Z,23.21
2023-05-22T01:10:43.575Z,23.09
2023-05-22T01:13:29.047Z,23.00
2023-05-22T01:16:14.361Z,23.01
2023-05-22T01:18:59.768Z,23.11
2023-05-22T01:21:44.809Z,23.07
2023-05-22T01:24:30.095Z,23.06
2023-05-22T01:27:15.636Z,22.98
2023-05-22T01:30:01.053Z,23.01
2023-05-22T01:32:46.702Z,23.02
2023-05-22T01:35:31.841Z,22.99
2023-05-22T01:38:16.947Z,23.11
2023-05-22T01:41:02.341Z,22.98
2023-05-22T01:43:47.758Z,23.06
2023-05-22T01:46:32.906Z,23.01
2023-05-22T01:49:18.369Z,23.04
2023-05-22T01:52:03.898Z,23.11
2023-05-22T01:54:49.136Z,23.09
2023-05-22T01:57:34.569Z,22.99
2023-05-22T02:00:19.886Z,22.94
2023-05-22T02:03:05.379Z,22.98
2023-05-22T02:05:50.788Z,22.94
2023-05-22T02:08:36.203Z,22.97
2023-05-22T02:11:21.546Z,22.95
2023-05-22T02:14:06.881Z,22.98
2023-05-22T02:16:52.216Z,22.96
2023-05-22T02:19:37.613Z,23.06
2023-05-22T02:22:22.835Z,23.01
2023-05-22T02:25:08.258Z,22.92
2023-05-22T02:27:53.636Z,22.86
2023-05-22T02:30:39.157Z,23.00
2023-05-22T02:33:24.545Z,22.89
2023-05-22T02:36:09.839Z,22.93
2023-05-22T02:38:55.355Z,23.10
2023-05-22T02:41:40.753Z,22.92
2023-05-22T02:44:26.152Z,23.01
2023-05-22T02:47:11.576Z,22.94
2023-05-22T02:49:56.976Z,23.06
2023-05-22T02:52:42.450Z,23.07
2023-05-22T02:55:27.722Z,22.93
2023-05-22T02:58:13.169Z,23.00
2023-05-22T03:00:58.536Z,22.87
2023-05-22T03:03:44.041Z,22.85
2023-05-22T03:06:29.268Z,23.00
2023-05-22T03:09:14.388Z,22.89
2023-05-22T03:11:59.715Z,22.97
2023-05-22T03:14:44.964Z,22.94
2023-05-22T03:17:30.424Z,22.89
2023-05-22T03:20:15.909Z,22.92
2023-05-22T03:23:01.316Z,22.93
2023-05-22T03:25:46.691Z,22.87
2023-05-22T03:28:32.070Z,22.87
2023-05-22T03:31:17.531Z,22.90
2023-05-22T03:34:02.943Z,23.04
2023-05-22T03:36:48.170Z,22.94
2023-05-22T03:39:33.601Z,22.88
2023-05-22T03:42:18.960Z,22.97
2023-05-22T03:45:04.451Z,22.86
2023-05-22T03:47:49.778Z,22.90
2023-05-22T03:50:35.106Z,22.86
2023-05-22T03:53:20.613Z,22.92
2023-05-22T03:56:05.928Z,22.87
2023-05-22T03:58:51.435Z,22.92
2023-05-22T04:01:36.734Z,22.85
2023-05-22T04:04:22.180Z,22.84
2023-05-22T04:07:07.335Z,22.95
2023-05-22T04:09:52.520Z,22.96
2023-05-22T04:12:37.838Z,23.07
2023-05-22T04:15:23.172Z,22.98
2023-05-22T04:18:08.596Z,22.88
2023-05-22T04:20:53.967Z,22.89
2023-05-22T04:23:39.324Z,22.89
2023-05-22T04:26:24.748Z,22.90
2023-05-22T04:29:10.135Z,22.99
2023-05-22T04:31:55.600Z,22.85
2023-05-22T04:34:41.062Z,22.87
2023-05-22T04:37:26.576Z,22.82
2023-05-22T04:40:11.689Z,22.78
2023-05-22T04:42:56.981Z,22.89
2023-05-22T04:45:42.333Z,22.82
2023-05-22T04:48:27.506Z,22.88
2023-05-22T04:51:12.890Z,22.71
2023-05-22T04:53:58.246Z,22.67
2023-05-22T04:56:43.732Z,22.67
2023-05-22T04:59:29.171Z,22.79
2023-05-22T05:02:14.371Z,22.81
2023-05-22T05:04:59.949Z,22.74
2023-05-22T05:07:46.707Z,22.83
2023-05-22T05:10:33.028Z,22.75
2023-05-22T05:13:18.607Z,22.74
2023-05-22T05:16:03.902Z,22.77
2023-05-22T05:18:49.235Z,22.81
2023-05-22T05:21:34.298Z,22.79
2023-05-22T05:24:19.648Z,22.89
2023-05-22T05:27:05.054Z,23.02
2023-05-22T05:29:50.205Z,22.85
2023-05-22T05:32:35.600Z,22.90
2023-05-22T05:35:20.868Z,22.89
2023-05-22T05:38:06.199Z,22.91
2023-05-22T05:40:51.680Z,22.88
2023-05-22T05:43:37.066Z,22.86
2023-05-22T05:46:22.603Z,22.85
2023-05-22T05:49:07.704Z,22.88
2023-05-22T05:51:53.196Z,22.84
2023-05-22T05:54:38.363Z,22.83
2023-05-22T05:57:23.670Z,22.73
2023-05-22T06:00:09.185Z,22.65
2023-05-22T06:02:54.621Z,22.64
2023-05-22T06:05:40.288Z,22.68
2023-05-22T06:08:25.617Z,22.76
2023-05-22T06:11:10.931Z,22.75
2023-05-22T06:13:56.548Z,22.87
2023-05-22T06:16:41.795Z,22.87
2023-05-22T06:19:27.283Z,22.87
2023-05-22T06:22:12.598Z,23.06
2023-05-22T06:24:57.994Z,22.71
2023-05-22T06:27:43.310Z,22.78
2023-05-22T06:30:39.622Z,23.09
2023-05-22T06:33:25.581Z,23.24
2023-05-22T06:36:10.985Z,23.14
2023-05-22T06:38:56.402Z,22.85
2023-05-22T06:41:41.658Z,22.71
2023-05-22T06:44:27.300Z,22.74
2023-05-22T06:47:12.555Z,22.72
2023-05-22T06:49:57.998Z,22.71
2023-05-22T06:52:43.325Z,22.85
2023-05-22T06:55:28.565Z,22.94
2023-05-22T06:58:14.044Z,23.13
2023-05-22T07:00:59.398Z,23.08
2023-05-22T07:03:44.963Z,23.05
2023-05-22T07:06:30.261Z,23.00
2023-05-22T07:09:15.631Z,22.83
2023-05-22T07:12:01.024Z,22.82
2023-05-22T07:14:46.401Z,22.81
2023-05-22T07:17:31.962Z,22.81
2023-05-22T07:20:17.093Z,22.88
2023-05-22T07:23:02.698Z,22.82
2023-05-22T07:25:48.035Z,22.85
2023-05-22T07:28:33.389Z,22.85
2023-05-22T07:31:18.938Z,22.86
2023-05-22T07:34:04.229Z,22.88
2023-05-22T07:36:49.644Z,22.87
2023-05-22T07:39:34.895Z,22.83
2023-05-22T07:42:20.204Z,22.99
2023-05-22T07:45:05.612Z,22.89
2023-05-22T07:47:52.244Z,22.98
2023-05-22T07:50:39.587Z,22.93
2023-05-22T07:53:25.069Z,22.84
2023-05-22T07:56:10.416Z,22.86
2023-05-22T07:58:55.969Z,22.87
2023-05-22T08:01:41.104Z,22.85
2023-05-22T08:04:26.478Z,22.87
2023-05-22T08:07:11.744Z,22.91
2023-05-22T08:09:57.058Z,22.88
2023-05-22T08:12:42.309Z,22.84
2023-05-22T08:15:27.835Z,22.83
2023-05-22T08:18:13.413Z,22.80
2023-05-22T08:20:58.769Z,22.78
2023-05-22T08:23:44.031Z,22.85
2023-05-22T08:26:30.117Z,22.83
2023-05-22T08:29:17.388Z,22.84
2023-05-22T08:32:02.747Z,22.85
2023-05-22T08:34:48.179Z,22.90
2023-05-22T08:37:33.468Z,22.81
2023-05-22T08:40:18.856Z,22.97
2023-05-22T08:43:04.161Z,22.88
2023-05-22T08:45:49.627Z,22.84
2023-05-22T08:48:34.915Z,22.95
2023-05-22T08:51:20.247Z,23.00
2023-05-22T08:54:05.564Z,23.21
2023-05-22T08:56:56.921Z,23.25
2023-05-22T08:59:42.372Z,23.39
2023-05-22T09:02:27.799Z,23.44
2023-05-22T09:05:13.201Z,23.39
2023-05-22T09:08:08.292Z,23.29
2023-05-22T09:11:01.992Z,23.02
2023-05-22T09:13:47.126Z,22.89
2023-05-22T09:16:32.662Z,22.98
2023-05-22T09:19:17.917Z,22.94
2023-05-22T09:22:03.302Z,22.98
2023-05-22T09:24:48.571Z,22.93
2023-05-22T09:27:33.944Z,22.96
2023-05-22T09:30:19.287Z,22.92
2023-05-22T09:33:04.538Z,22.96
2023-05-22T09:35:49.968Z,22.97
2023-05-22T09:38:35.246Z,22.98
2023-05-22T09:41:20.595Z,22.97
2023-05-22T09:44:05.875Z,22.99
2023-05-22T09:46:51.482Z,22.95
2023-05-22T09:49:36.847Z,23.04
2023-05-22T09:52:22.090Z,23.00
2023-05-22T09:55:07.351Z,23.02
2023-05-22T09:57:52.367Z,23.01
2023-05-22T10:00:38.099Z,22.96
2023-05-22T10:03:23.335Z,23.04
2023-05-22T10:06:08.809Z,23.02
2023-05-22T10:08:54.259Z,23.12
2023-05-22T10:11:39.452Z,23.08
2023-05-22T10:14:24.833Z,23.01
2023-05-22T10:17:10.281Z,23.00
2023-05-22T10:19:55.641Z,23.09
2023-05-22T10:22:40.906Z,23.08
2023-05-22T10:25:26.197Z,23.12
2023-05-22T10:28:11.306Z,23.06
2023-05-22T10:30:56.663Z,23.27
2023-05-22T10:33:42.083Z,23.56
2023-05-22T10:36:27.500Z,23.66
2023-05-22T10:39:12.731Z,23.49
2023-05-22T10:41:58.170Z,23.53
2023-05-22T10:44:43.490Z,23.56
2023-05-22T10:47:28.949Z,23.62
2023-05-22T10:50:14.434Z,23.49
2023-05-22T10:52:59.860Z,23.59
2023-05-22T10:55:45.184Z,23.61
2023-05-22T10:58:30.429Z,23.65
2023-05-22T11:01:15.843Z,23.65
2023-05-22T11:04:01.382Z,23.61
2023-05-22T11:06:46.793Z,23.63
2023-05-22T11:09:32.384Z,23.61
2023-05-22T11:12:17.783Z,23.57
2023-05-22T11:15:03.452Z,23.58
2023-05-22T11:17:48.871Z,23.58
2023-05-22T11:20:34.410Z,23.64
2023-05-22T11:23:19.557Z,23.66
2023-05-22T11:26:04.813Z,23.69
2023-05-22T11:28:50.283Z,23.56
2023-05-22T11:31:35.654Z,23.58
2023-05-22T11:34:20.983Z,23.63
2023-05-22T11:37:06.318Z,23.52
2023-05-22T11:39:51.635Z,23.64
2023-05-22T11:42:37.453Z,23.57
2023-05-22T11:45:22.677Z,23.56
2023-05-22T11:48:08.222Z,23.60
2023-05-22T11:50:53.355Z,23.65
2023-05-22T11:53:38.768Z,23.74
2023-05-22T11:56:24.179Z,23.55
2023-05-22T11:59:09.479Z,23.63
2023-05-22T12:01:54.882Z,23.68
2023-05-22T12:04:40.196Z,23.59
2023-05-22T12:07:25.405Z,23.66
2023-05-22T12:10:10.866Z,23.59
2023-05-22T12:12:56.266Z,23.62
2023-05-22T12:15:42.027Z,23.66
2023-05-22T12:18:26.985Z,23.69
2023-05-22T12:21:12.376Z,23.64
2023-05-22T12:23:57.854Z,23.74
2023-05-22T12:26:43.188Z,23.65
2023-05-22T12:29:28.670Z,23.62
2023-05-22T12:32:14.082Z,23.65
2023-05-22T12:34:59.556Z,23.67
2023-05-22T12:37:44.780Z,23.62
2023-05-22T12:40:30.309Z,23.73
2023-05-22T12:43:15.593Z,23.72
2023-05-22T12:46:02.514Z,23.76
2023-05-22T12:48:48.555Z,23.77
2023-05-22T12:51:33.897Z,23.83
2023-05-22T12:54:19.155Z,23.83
2023-05-22T12:57:04.595Z,23.81
2023-05-22T12:59:49.742Z,23.73
2023-05-22T13:02:35.040Z,23.68
2023-05-22T13:05:20.596Z,23.53
2023-05-22T13:08:05.746Z,23.57
2023-05-22T13:10:51.264Z,23.66
2023-05-22T13:13:36.586Z,23.39
2023-05-22T13:16:22.024Z,23.48
2023-05-22T13:19:07.118Z,23.61
2023-05-22T13:21:52.653Z,23.49
2023-05-22T13:24:38.118Z,23.57
2023-05-22T13:27:23.378Z,23.63
2023-05-22T13:30:08.916Z,23.67
2023-05-22T13:32:54.160Z,23.66
2023-05-22T13:35:39.801Z,23.57
2023-05-22T13:38:25.323Z,23.56
2023-05-22T13:41:10.819Z,23.70
2023-05-22T13:43:56.191Z,23.81
2023-05-22T13:46:41.474Z,23.80
2023-05-22T13:49:27.151Z,23.74
2023-05-22T13:52:12.382Z,23.71
2023-05-22T13:54:57.897Z,23.71
2023-05-22T13:57:43.248Z,23.76
2023-05-22T14:00:28.630Z,23.79
2023-05-22T14:03:14.165Z,23.73
2023-05-22T14:05:59.303Z,23.81
2023-05-22T14:08:44.961Z,23.66
2023-05-22T14:11:30.438Z,23.84
2023-05-22T14:14:15.721Z,23.76
2023-05-22T14:17:01.273Z,23.68
2023-05-22T14:19:46.473Z,23.72
2023-05-22T14:22:36.332Z,23.63
2023-05-22T14:25:30.445Z,23.55
2023-05-22T14:28:15.935Z,23.65
2023-05-22T14:31:01.284Z,23.62
2023-05-22T14:33:46.648Z,23.66
2023-05-22T14:36:32.076Z,23.67
2023-05-22T14:39:17.438Z,23.62
2023-05-22T14:42:02.874Z,23.69
2023-05-22T14:44:48.250Z,23.71
2023-05-22T14:47:33.607Z,23.75
2023-05-22T14:50:22.853Z,23.73
2023-05-22T14:53:08.474Z,23.69
2023-05-22T14:55:53.772Z,23.53
2023-05-22T14:58:39.240Z,23.55
2023-05-22T15:01:24.630Z,23.71
2023-05-22T15:04:10.113Z,23.73
2023-05-22T15:06:55.395Z,23.81
2023-05-22T15:09:40.901Z,23.61
2023-05-22T15:12:26.225Z,23.71
2023-05-22T15:15:11.546Z,23.66
2023-05-22T15:17:56.874Z,23.68
2023-05-22T15:20:42.148Z,23.64
2023-05-22T15:23:27.628Z,23.64
2023-05-22T15:26:12.621Z,23.61
2023-05-22T15:28:57.929Z,23.60
2023-05-22T15:31:43.473Z,23.66
2023-05-22T15:34:28.797Z,23.65
2023-05-22T15:37:14.194Z,23.62
2023-05-22T15:39:59.521Z,23.60
2023-05-22T15:42:45.061Z,23.56
2023-05-22T15:45:30.716Z,23.53
2023-05-22T15:48:16.205Z,23.59
2023-05-22T15:51:01.460Z,23.74
2023-05-22T15:53:46.973Z,23.56
2023-05-22T15:56:32.558Z,23.60
2023-05-22T15:59:18.896Z,23.50
2023-05-22T16:02:04.195Z,23.52
2023-05-22T16:04:49.642Z,23.53
2023-05-22T16:07:35.114Z,23.56
2023-05-22T16:10:20.625Z,23.51
2023-05-22T16:13:05.992Z,23.63
2023-05-22T16:15:51.111Z,23.74
2023-05-22T16:18:36.136Z,23.73
2023-05-22T16:21:21.439Z,24.12
2023-05-22T16:24:06.815Z,23.86
2023-05-22T16:26:52.195Z,23.91
2023-05-22T16:29:37.662Z,24.14
2023-05-22T16:32:23.177Z,24.08
2023-05-22T16:35:08.588Z,23.92
2023-05-22T16:37:54.073Z,24.05
2023-05-22T16:40:39.332Z,23.72
2023-05-22T16:43:24.767Z,23.81
2023-05-22T16:46:10.100Z,23.78
2023-05-22T16:48:55.498Z,23.71
2023-05-22T16:51:40.900Z,23.67
2023-05-22T16:54:26.123Z,23.64
2023-05-22T16:57:11.677Z,23.60
2023-05-22T16:59:57.906Z,23.67
2023-05-22T17:02:43.741Z,23.48
2023-05-22T17:05:29.030Z,23.51
2023-05-22T17:08:14.368Z,23.45
2023-05-22T17:10:59.852Z,23.39
2023-05-22T17:13:45.077Z,23.36
2023-05-22T17:16:30.295Z,23.47
2023-05-22T17:19:15.482Z,23.57
2023-05-22T17:22:00.837Z,23.57
2023-05-22T17:24:46.318Z,23.56
2023-05-22T17:27:36.012Z,23.47
2023-05-22T17:30:21.360Z,23.27
2023-05-22T17:33:06.791Z,23.41
2023-05-22T17:35:51.955Z,23.57
2023-05-22T17:38:37.677Z,23.59
2023-05-22T17:41:22.780Z,23.61
2023-05-22T17:44:08.087Z,23.58
2023-05-22T17:46:53.416Z,23.51
2023-05-22T17:49:38.710Z,23.53
2023-05-22T17:52:24.211Z,23.44
2023-05-22T17:55:09.642Z,23.41
2023-05-22T17:57:54.989Z,23.36
2023-05-22T18:00:40.788Z,23.40
2023-05-22T18:03:26.471Z,23.63
2023-05-22T18:06:12.031Z,23.41
2023-05-22T18:08:57.175Z,23.30
2023-05-22T18:11:42.570Z,23.39
2023-05-22T18:14:27.969Z,23.24
2023-05-22T18:17:13.317Z,23.30
2023-05-22T18:19:58.832Z,23.42
2023-05-22T18:22:44.087Z,23.40
2023-05-22T18:25:29.341Z,23.44
2023-05-22T18:28:14.506Z,23.57
2023-05-22T18:30:59.764Z,23.63
2023-05-22T18:33:45.174Z,23.70
2023-05-22T18:36:30.276Z,23.81
2023-05-22T18:39:15.320Z,23.74
2023-05-22T18:42:00.722Z,23.69
2023-05-22T18:44:50.679Z,23.71
2023-05-22T18:47:36.315Z,23.81
2023-05-22T18:50:23.403Z,23.67
2023-05-22T18:53:08.744Z,23.61
2023-05-22T18:55:54.441Z,23.69
2023-05-22T18:58:39.702Z,23.66
2023-05-22T19:01:25.276Z,23.69
2023-05-22T19:04:13.558Z,23.56
2023-05-22T19:06:58.688Z,23.66
2023-05-22T19:09:43.926Z,23.62
2023-05-22T19:12:29.202Z,23.59
2023-05-22T19:15:14.703Z,23.61
2023-05-22T19:18:00.222Z,23.61
2023-05-22T19:20:45.488Z,23.69
2023-05-22T19:23:30.953Z,23.65
2023-05-22T19:26:16.350Z,23.60
2023-05-22T19:29:01.850Z,23.59
2023-05-22T19:31:47.156Z,23.60
2023-05-22T19:34:32.652Z,23.53
2023-05-22T19:37:18.053Z,23.59
2023-05-22T19:40:03.268Z,23.61
2023-05-22T19:42:48.574Z,23.60
2023-05-22T19:45:33.862Z,23.62
2023-05-22T19:48:19.236Z,23.57
2023-05-22T19:51:04.573Z,23.59
2023-05-22T19:53:49.824Z,23.60
2023-05-22T19:56:35.340Z,23.59
2023-05-22T19:59:20.612Z,23.30
2023-05-22T20:02:06.065Z,23.45
2023-05-22T20:04:51.534Z,23.52
2023-05-22T20:07:36.819Z,23.60
2023-05-22T20:10:22.241Z,23.31
2023-05-22T20:13:07.576Z,23.20
2023-05-22T20:15:52.980Z,23.44
2023-05-22T20:18:38.318Z,23.44
2023-05-22T20:21:23.774Z,23.42
2023-05-22T20:24:10.299Z,23.45
2023-05-22T20:26:55.717Z,23.39
2023-05-22T20:29:41.232Z,23.48
2023-05-22T20:32:26.618Z,23.50
2023-05-22T20:35:11.997Z,23.48
2023-05-22T20:37:57.426Z,23.61
2023-05-22T20:40:42.681Z,23.39
2023-05-22T20:43:28.144Z,23.47
2023-05-22T20:46:13.634Z,23.46
2023-05-22T20:48:58.862Z,23.49
2023-05-22T20:51:44.160Z,23.49
2023-05-22T20:54:29.605Z,23.45
2023-05-22T20:57:15.082Z,23.46
2023-05-22T21:00:00.387Z,23.37
2023-05-22T21:02:45.883Z,23.33
2023-05-22T21:05:31.063Z,23.37
2023-05-22T21:08:16.583Z,23.32
2023-05-22T21:11:02.043Z,23.24
2023-05-22T21:13:47.286Z,23.35
2023-05-22T21:16:36.355Z,23.49
2023-05-22T21:19:23.946Z,23.48
2023-05-22T21:22:09.055Z,23.50
2023-05-22T21:24:54.695Z,23.54
2023-05-22T21:27:41.568Z,23.55
2023-05-22T21:30:26.551Z,23.57
2023-05-22T21:33:11.945Z,23.50
2023-05-22T21:35:57.174Z,23.58
2023-05-22T21:38:42.494Z,23.56
2023-05-22T21:41:27.675Z,23.59
2023-05-22T21:44:13.116Z,23.64
2023-05-22T21:46:58.611Z,23.59
2023-05-22T21:49:44.006Z,23.53
2023-05-22T21:52:29.504Z,23.62
2023-05-22T21:55:14.551Z,23.53
2023-05-22T21:57:59.981Z,23.59
2023-05-22T22:00:45.595Z,23.61
2023-05-22T22:03:31.100Z,23.47
2023-05-22T22:06:16.385Z,23.44
2023-05-22T22:09:01.537Z,23.40
2023-05-22T22:11:47.103Z,23.51
2023-05-22T22:14:32.433Z,23.43
2023-05-22T22:17:17.906Z,23.47
2023-05-22T22:20:03.456Z,23.49
2023-05-22T22:22:48.689Z,23.46
2023-05-22T22:25:34.219Z,23.44
2023-05-22T22:28:19.444Z,23.45
2023-05-22T22:31:04.904Z,23.41
2023-05-22T22:33:50.293Z,23.41
2023-05-22T22:36:35.577Z,23.51
2023-05-22T22:39:20.990Z,23.40
2023-05-22T22:42:06.299Z,23.35
2023-05-22T22:44:51.835Z,23.34
2023-05-22T22:47:37.349Z,23.36
2023-05-22T22:50:22.656Z,23.34
2023-05-22T22:53:08.230Z,23.39
2023-05-22T22:55:53.833Z,23.39
2023-05-22T22:58:39.154Z,23.40
2023-05-22T23:01:24.481Z,23.46
2023-05-22T23:04:09.755Z,23.35
2023-05-22T23:06:54.970Z,23.33
2023-05-22T23:09:40.253Z,23.33
2023-05-22T23:12:25.775Z,23.40
2023-05-22T23:15:11.213Z,23.43
2023-05-22T23:17:56.645Z,23.33
2023-05-22T23:20:42.052Z,23.44
2023-05-22T23:23:27.506Z,23.49
2023-05-22T23:26:13.015Z,23.43
2023-05-22T23:28:58.312Z,23.41
2023-05-22T23:31:43.642Z,23.43
2023-05-22T23:34:28.979Z,23.38
2023-05-22T23:37:14.302Z,23.37
2023-05-22T23:39:59.836Z,23.39
2023-05-22T23:42:44.841Z,23.35
2023-05-22T23:45:30.450Z,23.35
2023-05-22T23:48:15.853Z,23.41
2023-05-22T23:51:01.229Z,23.49
2023-05-22T23:53:46.529Z,23.35
2023-05-22T23:56:31.834Z,23.38
2023-05-22T23:59:17.265Z,23.34
